Jordan, MT

2:25 AM MDT on August 31, 2014 (GMT -0600)
Wokal-Glasgow International | Change Station
CLOSE
Current Station
Airport
Location: Glasgow,
Elevation: 2293 ft
Nearby Weather Stations

Elev 2293 ft 48.21 °N, 106.62 °W | Updated 6 minutes ago

Partly Cloudy
Partly Cloudy
54 °F
Feels Like 54 °F
N
12
Wind Variable Wind from NW

Today
High -- | Low -- °F
--% Chance of Precip.
Yesterday
High -- | Low -- °F
Precip. -- in
6:25 AM 7:49 PM
Waxing Crescent, 29% visible
Pressure 29.70 in
Visibility 2.5 miles
Clouds Few 200 ft
Dew Point 53 °F
Humidity 97%
Rainfall 0.00 in
Snow Depth Not available.
UV 0 out of 12
Pollen 8.90 out of 12
Air Quality Not available.
Flu Activity Not available.
SPECI KGGW 310819Z AUTO 32010KT 2 1/2SM BR FEW002 12/12 A2970 RMK AO2 LTG DSNT N AND NE T01220117

More Conditions Fewer Conditions

Pressure 29.70 in
Visibility 2.5 miles
Clouds Few 200 ft
Dew Point 53 °F
Humidity 97%
Rainfall 0.00 in
Snow Depth Not available.
UV 0 out of 12
Pollen 8.90 out of 12
Air Quality Not available.
Flu Activity Not available.
SPECI KGGW 310819Z AUTO 32010KT 2 1/2SM BR FEW002 12/12 A2970 RMK AO2 LTG DSNT N AND NE T01220117

More Conditions Fewer Conditions

10-Day Weather Forecast

Almanac

Astronomy

Aug. 31, 2014 Rise Set
Actual Time 6:25 AM MDT 7:49 PM MDT
Civil Twilight 5:53 AM MDT 8:21 PM MDT
Nautical Twilight 5:14 AM MDT 8:59 PM MDT
Astronomical Twilight 4:33 AM MDT 9:41 PM MDT
Moon 12:39 PM MDT 10:40 PM MDT
Length of Visible Light 14h 27m
Length of Day
13h 24m
Tomorrow will be 3m 18s shorter.
Waxing Crescent, 29% of the Moon is Illuminated
Today
Waxing Crescent
Sep 2
First Quarter
Sep 8
Full
Sep 15
Last Quarter
Sep 24
New

Today's Extremes

State Highs State Lows

Community

WunderPhotos

Upload Photos

1,748,820 photos uploaded!

Nearby

Snow Depth

Station Depth Elevation
Crystal Lake 1 in 6050 ft
Rocky Boy 0 in 4700 ft
Daisy Peak 0 in 7600 ft
Deadman Creek 0 in 6450 ft
South Fork Shields 0 in 8100 ft

Earthquake Activity

City Distance Mag. Time & Date
No recent earthquake activity has been reported nearby.
Minimum magnitude displayed is 2.5.

Coastal Water Temperatures

Place Temperature
No Stations Reporting

Nearby Weather Stations